Hartford, Connecticut
Traffic Map
Current Weather Conditions
Hartford, Connecticut
Broken Clouds
Broken Clouds

Feels Like: -3°
Wind Chill: -3° Ceiling: 3300
Heat Index: Visibility: 10mi
Dew Point: -3° Wind: 6mph
Humidity: 82% Direction: ° ()
Pressure: 29.95in Gusts: 0mph
Raw Report DataKHFD 271253Z VRB05KT 10SM BKN033 00/M03 A2995 RMK AO2 SLP142 T00001028
Traffic Incident Summary
Active as of:
Severity:
Category:
InformationThere was an issue retrieving the traffic information for this location. Please try a different location or try again shortly.
Advertisements
Track Severe Weather on mobile